Nearby METAR Reports

 

KCMA - Camarillo, California, USA
Distance from station: WSW 4mi, 7km
Updated: Wed, 26-Sep-2018 3:55am PDT
Haze, Overcast
Haze, Overcast
 Wind from calm
Wind: Calm
Temperature: 63°F , 17°C
Dew Point: 57°F , 14°C
Humidity: 83%
Barometer: 29.93 inHg , 1013.5 hPa
Summary: Haze
Clouds: Overcast
Visibility: 6 miles , 10 km
Cloud details: Overcast 800 ft
2018/09/26 10:55 KCMA 261055Z AUTO 00000KT 6SM HZ OVC008 17/14 A2993 RMK AO2 SLP144 T01720139
KNTD - Point Mugu Nas, California, USA
Distance from station: SSW 9mi, 15km
Updated: Wed, 26-Sep-2018 3:57am PDT
Overcast
Overcast
 Wind from N
Wind: N 3 mph , 6 km/h
Temperature: 63°F , 17°C
Dew Point: 57°F , 14°C
Humidity: 83%
Barometer: 29.94 inHg , 1013.9 hPa
Clouds: Overcast
Visibility: 8 miles , 13 km
Cloud details: Overcast 900 ft
2018/09/26 10:57 KNTD 261057Z AUTO 01003KT 8SM OVC009 17/14 A2994 RMK AO2 SLP139 T01670139 $
 
KOXR - Oxnard, California, USA
Distance from station: WSW 10mi, 16km
Updated: Wed, 26-Sep-2018 3:51am PDT
Overcast
Overcast
 Wind from calm
Wind: Calm
Temperature: 63°F , 17°C
Dew Point: 57°F , 14°C
Humidity: 83%
Barometer: 29.94 inHg , 1013.9 hPa
Clouds: Overcast
Visibility: 8 miles , 13 km
Cloud details: Overcast 800 ft
2018/09/26 10:51 KOXR 261051Z AUTO 00000KT 8SM OVC008 17/14 A2994 RMK AO2 SLP136 T01670144
KVNY - Van Nuys, California, USA
Distance from station: E 31mi, 50km
Updated: Wed, 26-Sep-2018 3:51am PDT
Clear
Clear
 Wind from calm
Wind: Calm
Temperature: 63°F , 17°C
Dew Point: 57°F , 14°C
Humidity: 83%
Barometer: 29.93 inHg , 1013.5 hPa
Clouds: Clear
Visibility: 8 miles , 13 km
2018/09/26 10:51 KVNY 261051Z AUTO 00000KT 8SM CLR 17/14 A2993 RMK AO2 SLP128 T01720144
 
KWHP - La / Whiteman, California, USA
Distance from station: E 35mi, 56km
Updated: Tue, 25-Sep-2018 6:50pm PDT
NOT Current
Clear
Clear
 Wind from ESE
Wind: ESE 7 mph , 11 km/h
Temperature: 70°F , 21°C
Dew Point: 57°F , 14°C
Humidity: 64%
Barometer: 29.93 inHg , 1013.5 hPa
Clouds: Clear
Visibility: 10 miles , 16 km
2018/09/26 01:50 KWHP 260150Z 12006KT 10SM SKC 21/14 A2993
KSMO - Santa Monica, California, USA
Distance from station: ESE 36mi, 58km
Updated: Wed, 26-Sep-2018 3:51am PDT
Overcast
Overcast
 Wind from calm
Wind: Calm
Temperature: 66°F , 19°C
Dew Point: 61°F , 16°C
Humidity: 83%
Barometer: 29.94 inHg , 1013.9 hPa
Clouds: Overcast
Visibility: 8 miles , 13 km
Cloud details: Overcast 800 ft
2018/09/26 10:51 KSMO 261051Z AUTO 00000KT 8SM OVC008 19/16 A2994 RMK AO2 SLP135 T01890156
 
KBUR - Burbank, California, USA
Distance from station: E 38mi, 61km
Updated: Wed, 26-Sep-2018 3:53am PDT
Mist, Overcast
Mist, Overcast
 Wind from calm
Wind: Calm
Temperature: 63°F , 17°C
Dew Point: 61°F , 16°C
Humidity: 94%
Barometer: 29.94 inHg , 1013.9 hPa
Summary: Mist
Clouds: Overcast
Visibility: 5 miles , 8 km
Cloud details: Overcast 800 ft
2018/09/26 10:53 KBUR 261053Z 00000KT 5SM BR OVC008 17/16 A2994 RMK AO2 SLP126 T01670156
KSDB - Sandberg, California, USA
Distance from station: NNE 40mi, 64km
Updated: Wed, 26-Sep-2018 3:53am PDT
Clear
Clear
 Wind from N
Wind: N 12 mph , 19 km/h
Temperature: 72°F , 22°C
Dew Point: 36°F , 2°C
Humidity: 27%
Barometer: 30.14 inHg , 1020.7 hPa
Clouds: Clear
Visibility: 10 miles , 16 km
2018/09/26 10:53 KSDB 261053Z AUTO 35010KT 10SM CLR 22/02 A3014 RMK AO2 SLP144 T02170017 $
 
KLAX - Los Angeles, California, USA
Distance from station: ESE 42mi, 68km
Updated: Wed, 26-Sep-2018 3:53am PDT
Overcast
Overcast
 Wind from W
Wind: W 3 mph , 6 km/h
Temperature: 64°F , 18°C
Dew Point: 61°F , 16°C
Humidity: 88%
Barometer: 29.94 inHg , 1013.9 hPa
Clouds: Overcast
Visibility: 8 miles , 13 km
Cloud details: Mostly cloudy 800 ft
Overcast 1000 ft
2018/09/26 10:53 KLAX 261053Z 27003KT 8SM BKN008 OVC010 18/16 A2994 RMK AO2 SLP135 T01780156 $
KCQT - Los Angeles, California, USA
Distance from station: ESE 45mi, 73km
Updated: Wed, 26-Sep-2018 3:47am PDT
Overcast
Overcast
 Wind from calm
Wind: Calm
Temperature: 64°F , 18°C
Dew Point: 61°F , 16°C
Humidity: 88%
Barometer: 29.93 inHg , 1013.5 hPa
Clouds: Overcast
Visibility: 7 miles , 11 km
Cloud details: Overcast 700 ft
2018/09/26 10:47 KCQT 261047Z AUTO 00000KT 7SM OVC007 18/16 A2993 RMK AO2 SLP133 T01780156 $
 
KHHR - Hawthorne, California, USA
Distance from station: ESE 45mi, 73km
Updated: Wed, 26-Sep-2018 3:53am PDT
Overcast
Overcast
 Wind from calm
Wind: Calm
Temperature: 64°F , 18°C
Dew Point: 61°F , 16°C
Humidity: 88%
Barometer: 29.94 inHg , 1013.9 hPa
Clouds: Overcast
Visibility: 7 miles , 11 km
Cloud details: Overcast 900 ft
2018/09/26 10:53 KHHR 261053Z AUTO 00000KT 7SM OVC009 18/16 A2994 RMK AO2 SLP137 T01780156
KSBA - Santa Barbara, California, USA
Distance from station: WNW 49mi, 79km
Updated: Wed, 26-Sep-2018 3:53am PDT
Overcast
Overcast
 Wind from SSW
Wind: SSW 5 mph , 7 km/h
Temperature: 61°F , 16°C
Dew Point: 57°F , 14°C
Humidity: 88%
Barometer: 29.94 inHg , 1013.9 hPa
Clouds: Overcast
Visibility: 9 miles , 14 km
Cloud details: Overcast 900 ft
2018/09/26 10:53 KSBA 261053Z AUTO 21004KT 9SM OVC009 16/14 A2994 RMK AO2 SLP137 T01560139